sensor_id;sensor_type;location;lat;lon;timestamp;P1;durP1;ratioP1;P2;durP2;ratioP2
68212;SDS011;55035;47.792;8.724;2023-02-15T00:00:03;55.00;;;9.75;;
68212;SDS011;55035;47.792;8.724;2023-02-15T00:02:31;60.78;;;10.27;;
68212;SDS011;55035;47.792;8.724;2023-02-15T00:04:59;78.70;;;9.03;;
68212;SDS011;55035;47.792;8.724;2023-02-15T00:07:26;48.20;;;9.30;;
68212;SDS011;55035;47.792;8.724;2023-02-15T00:09:53;47.45;;;9.15;;
68212;SDS011;55035;47.792;8.724;2023-02-15T00:12:19;57.45;;;9.52;;
68212;SDS011;55035;47.792;8.724;2023-02-15T00:14:46;37.13;;;9.88;;
68212;SDS011;55035;47.792;8.724;2023-02-15T00:17:13;47.00;;;9.63;;
68212;SDS011;55035;47.792;8.724;2023-02-15T00:19:40;43.90;;;9.80;;
68212;SDS011;55035;47.792;8.724;2023-02-15T00:22:09;95.55;;;10.63;;
68212;SDS011;55035;47.792;8.724;2023-02-15T00:24:35;96.95;;;10.82;;
68212;SDS011;55035;47.792;8.724;2023-02-15T00:27:02;54.63;;;10.77;;
68212;SDS011;55035;47.792;8.724;2023-02-15T00:29:30;60.83;;;10.57;;
68212;SDS011;55035;47.792;8.724;2023-02-15T00:31:56;59.30;;;10.60;;
68212;SDS011;55035;47.792;8.724;2023-02-15T00:34:25;40.20;;;10.60;;
68212;SDS011;55035;47.792;8.724;2023-02-15T00:36:51;46.13;;;9.45;;
68212;SDS011;55035;47.792;8.724;2023-02-15T00:39:20;43.58;;;10.43;;
68212;SDS011;55035;47.792;8.724;2023-02-15T00:41:47;47.87;;;9.63;;
68212;SDS011;55035;47.792;8.724;2023-02-15T00:44:14;46.05;;;9.90;;
68212;SDS011;55035;47.792;8.724;2023-02-15T00:46:41;40.17;;;9.20;;
68212;SDS011;55035;47.792;8.724;2023-02-15T00:49:08;67.40;;;10.15;;
68212;SDS011;55035;47.792;8.724;2023-02-15T00:51:35;39.28;;;9.50;;
68212;SDS011;55035;47.792;8.724;2023-02-15T00:54:02;37.03;;;9.77;;
68212;SDS011;55035;47.792;8.724;2023-02-15T00:56:30;46.38;;;9.52;;
68212;SDS011;55035;47.792;8.724;2023-02-15T00:58:57;41.20;;;9.02;;
68212;SDS011;55035;47.792;8.724;2023-02-15T01:01:24;44.75;;;9.77;;
68212;SDS011;55035;47.792;8.724;2023-02-15T01:03:51;44.70;;;9.68;;
68212;SDS011;55035;47.792;8.724;2023-02-15T01:06:18;39.20;;;7.73;;
68212;SDS011;55035;47.792;8.724;2023-02-15T01:08:46;34.17;;;7.30;;
68212;SDS011;55035;47.792;8.724;2023-02-15T01:11:14;47.13;;;9.13;;
68212;SDS011;55035;47.792;8.724;2023-02-15T01:13:42;32.67;;;8.27;;
68212;SDS011;55035;47.792;8.724;2023-02-15T01:16:09;37.25;;;7.57;;
68212;SDS011;55035;47.792;8.724;2023-02-15T01:18:36;57.47;;;8.00;;
68212;SDS011;55035;47.792;8.724;2023-02-15T01:21:08;80.63;;;8.88;;
68212;SDS011;55035;47.792;8.724;2023-02-15T01:23:36;81.55;;;9.40;;
68212;SDS011;55035;47.792;8.724;2023-02-15T01:26:03;42.80;;;8.65;;
68212;SDS011;55035;47.792;8.724;2023-02-15T01:28:29;49.63;;;9.27;;
68212;SDS011;55035;47.792;8.724;2023-02-15T01:30:58;59.67;;;8.97;;
68212;SDS011;55035;47.792;8.724;2023-02-15T01:33:25;35.72;;;8.77;;
68212;SDS011;55035;47.792;8.724;2023-02-15T01:35:55;63.15;;;9.25;;
68212;SDS011;55035;47.792;8.724;2023-02-15T01:38:22;66.88;;;10.02;;
68212;SDS011;55035;47.792;8.724;2023-02-15T01:40:50;84.18;;;10.05;;
68212;SDS011;55035;47.792;8.724;2023-02-15T01:43:17;70.87;;;9.50;;
68212;SDS011;55035;47.792;8.724;2023-02-15T01:45:44;54.63;;;10.30;;
68212;SDS011;55035;47.792;8.724;2023-02-15T01:48:16;48.75;;;10.27;;
68212;SDS011;55035;47.792;8.724;2023-02-15T01:50:46;48.20;;;9.63;;
68212;SDS011;55035;47.792;8.724;2023-02-15T01:53:15;49.75;;;10.20;;
68212;SDS011;55035;47.792;8.724;2023-02-15T01:55:45;40.50;;;10.27;;
68212;SDS011;55035;47.792;8.724;2023-02-15T01:58:14;39.78;;;9.50;;
68212;SDS011;55035;47.792;8.724;2023-02-15T02:00:41;42.88;;;10.70;;
68212;SDS011;55035;47.792;8.724;2023-02-15T02:03:08;32.72;;;9.20;;
68212;SDS011;55035;47.792;8.724;2023-02-15T02:05:36;41.63;;;10.95;;
68212;SDS011;55035;47.792;8.724;2023-02-15T02:08:04;36.23;;;9.87;;
68212;SDS011;55035;47.792;8.724;2023-02-15T02:10:31;39.38;;;10.30;;
68212;SDS011;55035;47.792;8.724;2023-02-15T02:12:58;32.78;;;10.27;;
68212;SDS011;55035;47.792;8.724;2023-02-15T02:15:28;46.08;;;12.32;;
68212;SDS011;55035;47.792;8.724;2023-02-15T02:18:03;35.65;;;11.85;;
68212;SDS011;55035;47.792;8.724;2023-02-15T02:20:55;40.37;;;11.50;;
68212;SDS011;55035;47.792;8.724;2023-02-15T02:23:28;47.47;;;10.90;;
68212;SDS011;55035;47.792;8.724;2023-02-15T02:26:05;44.60;;;10.27;;
68212;SDS011;55035;47.792;8.724;2023-02-15T02:28:43;44.60;;;10.32;;
68212;SDS011;55035;47.792;8.724;2023-02-15T02:31:22;50.75;;;9.85;;
68212;SDS011;55035;47.792;8.724;2023-02-15T02:33:58;39.53;;;9.73;;
68212;SDS011;55035;47.792;8.724;2023-02-15T02:36:30;32.70;;;9.57;;
68212;SDS011;55035;47.792;8.724;2023-02-15T02:41:43;31.98;;;8.82;;
68212;SDS011;55035;47.792;8.724;2023-02-15T02:44:13;41.25;;;10.15;;
68212;SDS011;55035;47.792;8.724;2023-02-15T02:46:44;46.97;;;10.33;;
68212;SDS011;55035;47.792;8.724;2023-02-15T02:49:14;33.60;;;9.30;;
68212;SDS011;55035;47.792;8.724;2023-02-15T02:51:40;33.42;;;9.25;;
68212;SDS011;55035;47.792;8.724;2023-02-15T02:54:09;41.33;;;9.73;;
68212;SDS011;55035;47.792;8.724;2023-02-15T02:56:39;35.58;;;10.10;;
68212;SDS011;55035;47.792;8.724;2023-02-15T02:59:08;39.90;;;9.50;;
68212;SDS011;55035;47.792;8.724;2023-02-15T03:01:39;35.97;;;9.50;;
68212;SDS011;55035;47.792;8.724;2023-02-15T03:04:08;30.95;;;8.75;;
68212;SDS011;55035;47.792;8.724;2023-02-15T03:06:38;31.13;;;9.32;;
68212;SDS011;55035;47.792;8.724;2023-02-15T03:09:08;47.55;;;10.10;;
68212;SDS011;55035;47.792;8.724;2023-02-15T03:11:40;30.10;;;9.80;;
68212;SDS011;55035;47.792;8.724;2023-02-15T03:14:07;33.20;;;9.27;;
68212;SDS011;55035;47.792;8.724;2023-02-15T03:16:34;33.95;;;10.18;;
68212;SDS011;55035;47.792;8.724;2023-02-15T03:19:02;35.38;;;9.07;;
68212;SDS011;55035;47.792;8.724;2023-02-15T03:21:33;34.08;;;9.93;;
68212;SDS011;55035;47.792;8.724;2023-02-15T03:24:07;26.07;;;8.50;;
68212;SDS011;55035;47.792;8.724;2023-02-15T03:26:35;38.80;;;9.07;;
68212;SDS011;55035;47.792;8.724;2023-02-15T03:29:03;36.13;;;8.93;;
68212;SDS011;55035;47.792;8.724;2023-02-15T03:31:33;39.65;;;9.88;;
68212;SDS011;55035;47.792;8.724;2023-02-15T03:34:03;34.42;;;9.18;;
68212;SDS011;55035;47.792;8.724;2023-02-15T03:36:32;32.33;;;9.13;;
68212;SDS011;55035;47.792;8.724;2023-02-15T03:39:04;37.60;;;8.65;;
68212;SDS011;55035;47.792;8.724;2023-02-15T03:41:34;25.90;;;8.70;;
68212;SDS011;55035;47.792;8.724;2023-02-15T03:44:04;39.55;;;8.52;;
68212;SDS011;55035;47.792;8.724;2023-02-15T03:46:32;34.42;;;8.45;;
68212;SDS011;55035;47.792;8.724;2023-02-15T03:49:01;48.07;;;10.00;;
68212;SDS011;55035;47.792;8.724;2023-02-15T03:51:29;50.00;;;8.82;;
68212;SDS011;55035;47.792;8.724;2023-02-15T03:53:59;40.03;;;9.80;;
68212;SDS011;55035;47.792;8.724;2023-02-15T03:56:27;29.02;;;9.50;;
68212;SDS011;55035;47.792;8.724;2023-02-15T03:58:55;31.08;;;8.98;;
68212;SDS011;55035;47.792;8.724;2023-02-15T04:01:39;33.67;;;8.83;;
68212;SDS011;55035;47.792;8.724;2023-02-15T04:04:24;33.78;;;8.88;;
68212;SDS011;55035;47.792;8.724;2023-02-15T04:06:51;35.13;;;9.05;;
68212;SDS011;55035;47.792;8.724;2023-02-15T04:09:18;26.63;;;9.45;;
68212;SDS011;55035;47.792;8.724;2023-02-15T04:12:02;33.00;;;9.32;;
68212;SDS011;55035;47.792;8.724;2023-02-15T04:14:31;32.53;;;8.93;;
68212;SDS011;55035;47.792;8.724;2023-02-15T04:17:15;37.45;;;8.43;;
68212;SDS011;55035;47.792;8.724;2023-02-15T04:19:42;23.88;;;9.23;;
68212;SDS011;55035;47.792;8.724;2023-02-15T04:22:27;29.00;;;8.90;;
68212;SDS011;55035;47.792;8.724;2023-02-15T04:25:11;43.92;;;9.48;;
68212;SDS011;55035;47.792;8.724;2023-02-15T04:27:38;51.10;;;8.97;;
68212;SDS011;55035;47.792;8.724;2023-02-15T04:30:08;39.13;;;8.85;;
68212;SDS011;55035;47.792;8.724;2023-02-15T04:32:35;38.55;;;8.23;;
68212;SDS011;55035;47.792;8.724;2023-02-15T04:35:02;26.80;;;7.70;;
68212;SDS011;55035;47.792;8.724;2023-02-15T04:37:29;27.00;;;8.30;;
68212;SDS011;55035;47.792;8.724;2023-02-15T04:39:56;29.03;;;7.97;;
68212;SDS011;55035;47.792;8.724;2023-02-15T04:42:23;30.05;;;7.32;;
68212;SDS011;55035;47.792;8.724;2023-02-15T04:44:50;22.63;;;7.32;;
68212;SDS011;55035;47.792;8.724;2023-02-15T04:47:18;43.40;;;8.38;;
68212;SDS011;55035;47.792;8.724;2023-02-15T04:49:45;52.42;;;8.70;;
68212;SDS011;55035;47.792;8.724;2023-02-15T04:52:12;67.27;;;8.00;;
68212;SDS011;55035;47.792;8.724;2023-02-15T04:54:39;47.80;;;8.18;;
68212;SDS011;55035;47.792;8.724;2023-02-15T04:57:06;23.20;;;8.23;;
68212;SDS011;55035;47.792;8.724;2023-02-15T04:59:33;30.75;;;8.35;;
68212;SDS011;55035;47.792;8.724;2023-02-15T05:02:00;24.88;;;8.45;;
68212;SDS011;55035;47.792;8.724;2023-02-15T05:04:28;36.27;;;8.20;;
68212;SDS011;55035;47.792;8.724;2023-02-15T05:06:55;48.30;;;9.13;;
68212;SDS011;55035;47.792;8.724;2023-02-15T05:09:22;40.35;;;9.35;;
68212;SDS011;55035;47.792;8.724;2023-02-15T05:11:49;42.10;;;8.93;;
68212;SDS011;55035;47.792;8.724;2023-02-15T05:14:16;48.97;;;8.32;;
68212;SDS011;55035;47.792;8.724;2023-02-15T05:16:42;38.27;;;8.40;;
68212;SDS011;55035;47.792;8.724;2023-02-15T05:19:09;41.88;;;9.32;;
68212;SDS011;55035;47.792;8.724;2023-02-15T05:21:38;42.25;;;9.07;;
68212;SDS011;55035;47.792;8.724;2023-02-15T05:24:05;44.88;;;8.57;;
68212;SDS011;55035;47.792;8.724;2023-02-15T05:26:52;42.08;;;8.95;;
68212;SDS011;55035;47.792;8.724;2023-02-15T05:29:37;35.57;;;8.87;;
68212;SDS011;55035;47.792;8.724;2023-02-15T05:32:04;42.53;;;8.80;;
68212;SDS011;55035;47.792;8.724;2023-02-15T05:34:31;35.67;;;8.77;;
68212;SDS011;55035;47.792;8.724;2023-02-15T05:36:59;37.90;;;9.23;;
68212;SDS011;55035;47.792;8.724;2023-02-15T05:39:27;37.72;;;9.07;;
68212;SDS011;55035;47.792;8.724;2023-02-15T05:41:57;22.73;;;8.00;;
68212;SDS011;55035;47.792;8.724;2023-02-15T05:44:24;25.65;;;8.30;;
68212;SDS011;55035;47.792;8.724;2023-02-15T05:46:51;37.88;;;8.60;;
68212;SDS011;55035;47.792;8.724;2023-02-15T05:49:18;26.65;;;8.45;;
68212;SDS011;55035;47.792;8.724;2023-02-15T05:51:45;27.33;;;8.40;;
68212;SDS011;55035;47.792;8.724;2023-02-15T05:54:13;42.03;;;8.80;;
68212;SDS011;55035;47.792;8.724;2023-02-15T05:56:40;33.45;;;8.68;;
68212;SDS011;55035;47.792;8.724;2023-02-15T05:59:06;33.55;;;9.32;;
68212;SDS011;55035;47.792;8.724;2023-02-15T06:01:33;30.35;;;8.23;;
68212;SDS011;55035;47.792;8.724;2023-02-15T06:04:00;26.67;;;9.15;;
68212;SDS011;55035;47.792;8.724;2023-02-15T06:06:27;26.47;;;8.90;;
68212;SDS011;55035;47.792;8.724;2023-02-15T06:08:54;25.13;;;7.85;;
68212;SDS011;55035;47.792;8.724;2023-02-15T06:11:22;36.85;;;9.75;;
68212;SDS011;55035;47.792;8.724;2023-02-15T06:13:49;29.50;;;9.60;;
68212;SDS011;55035;47.792;8.724;2023-02-15T06:16:16;30.50;;;9.60;;
68212;SDS011;55035;47.792;8.724;2023-02-15T06:18:43;39.67;;;10.03;;
68212;SDS011;55035;47.792;8.724;2023-02-15T06:21:10;33.75;;;8.88;;
68212;SDS011;55035;47.792;8.724;2023-02-15T06:23:36;26.13;;;9.07;;
68212;SDS011;55035;47.792;8.724;2023-02-15T06:26:03;29.60;;;9.43;;
68212;SDS011;55035;47.792;8.724;2023-02-15T06:28:31;30.48;;;9.35;;
68212;SDS011;55035;47.792;8.724;2023-02-15T06:30:59;29.93;;;9.33;;
68212;SDS011;55035;47.792;8.724;2023-02-15T06:33:26;33.80;;;9.80;;
68212;SDS011;55035;47.792;8.724;2023-02-15T06:35:57;44.33;;;8.98;;
68212;SDS011;55035;47.792;8.724;2023-02-15T06:38:25;29.23;;;8.43;;
68212;SDS011;55035;47.792;8.724;2023-02-15T06:40:53;30.00;;;8.95;;
68212;SDS011;55035;47.792;8.724;2023-02-15T06:43:20;30.23;;;8.73;;
68212;SDS011;55035;47.792;8.724;2023-02-15T06:45:48;31.92;;;8.65;;
68212;SDS011;55035;47.792;8.724;2023-02-15T06:48:15;28.30;;;9.15;;
68212;SDS011;55035;47.792;8.724;2023-02-15T06:50:41;35.67;;;9.35;;
68212;SDS011;55035;47.792;8.724;2023-02-15T06:53:08;36.58;;;9.63;;
68212;SDS011;55035;47.792;8.724;2023-02-15T06:55:35;32.37;;;9.37;;
68212;SDS011;55035;47.792;8.724;2023-02-15T06:58:02;29.80;;;9.32;;
68212;SDS011;55035;47.792;8.724;2023-02-15T07:00:29;28.45;;;8.15;;
68212;SDS011;55035;47.792;8.724;2023-02-15T07:02:57;25.63;;;7.93;;
68212;SDS011;55035;47.792;8.724;2023-02-15T07:05:24;32.40;;;8.48;;
68212;SDS011;55035;47.792;8.724;2023-02-15T07:07:56;24.20;;;7.77;;
68212;SDS011;55035;47.792;8.724;2023-02-15T07:10:22;21.50;;;7.68;;
68212;SDS011;55035;47.792;8.724;2023-02-15T07:12:49;22.00;;;8.38;;
68212;SDS011;55035;47.792;8.724;2023-02-15T07:15:16;28.83;;;9.35;;
68212;SDS011;55035;47.792;8.724;2023-02-15T07:17:43;27.03;;;9.47;;
68212;SDS011;55035;47.792;8.724;2023-02-15T07:20:12;26.85;;;9.32;;
68212;SDS011;55035;47.792;8.724;2023-02-15T07:22:40;32.60;;;9.45;;
68212;SDS011;55035;47.792;8.724;2023-02-15T07:25:07;31.70;;;8.85;;
68212;SDS011;55035;47.792;8.724;2023-02-15T07:27:35;22.92;;;8.45;;
68212;SDS011;55035;47.792;8.724;2023-02-15T07:30:02;24.73;;;8.73;;
68212;SDS011;55035;47.792;8.724;2023-02-15T07:32:29;30.52;;;9.77;;
68212;SDS011;55035;47.792;8.724;2023-02-15T07:34:56;29.83;;;9.02;;
68212;SDS011;55035;47.792;8.724;2023-02-15T07:37:25;24.70;;;9.13;;
68212;SDS011;55035;47.792;8.724;2023-02-15T07:39:52;33.83;;;8.82;;
68212;SDS011;55035;47.792;8.724;2023-02-15T07:42:20;24.57;;;8.63;;
68212;SDS011;55035;47.792;8.724;2023-02-15T07:44:47;29.52;;;9.43;;
68212;SDS011;55035;47.792;8.724;2023-02-15T07:47:14;24.10;;;9.30;;
68212;SDS011;55035;47.792;8.724;2023-02-15T07:49:41;27.50;;;9.73;;
68212;SDS011;55035;47.792;8.724;2023-02-15T07:52:08;32.63;;;9.15;;
68212;SDS011;55035;47.792;8.724;2023-02-15T07:54:37;25.83;;;9.27;;
68212;SDS011;55035;47.792;8.724;2023-02-15T07:57:05;30.45;;;9.50;;
68212;SDS011;55035;47.792;8.724;2023-02-15T07:59:32;27.05;;;9.70;;
68212;SDS011;55035;47.792;8.724;2023-02-15T08:01:59;32.92;;;9.23;;
68212;SDS011;55035;47.792;8.724;2023-02-15T08:04:26;39.10;;;10.10;;
68212;SDS011;55035;47.792;8.724;2023-02-15T08:06:53;36.53;;;10.30;;
68212;SDS011;55035;47.792;8.724;2023-02-15T08:09:20;33.35;;;10.13;;
68212;SDS011;55035;47.792;8.724;2023-02-15T08:11:49;37.83;;;10.93;;
68212;SDS011;55035;47.792;8.724;2023-02-15T08:14:16;29.63;;;10.38;;
68212;SDS011;55035;47.792;8.724;2023-02-15T08:16:43;36.28;;;9.95;;
68212;SDS011;55035;47.792;8.724;2023-02-15T08:19:12;29.07;;;9.63;;
68212;SDS011;55035;47.792;8.724;2023-02-15T08:21:41;30.70;;;9.45;;
68212;SDS011;55035;47.792;8.724;2023-02-15T08:24:08;25.63;;;8.82;;
68212;SDS011;55035;47.792;8.724;2023-02-15T08:26:36;35.63;;;9.23;;
68212;SDS011;55035;47.792;8.724;2023-02-15T08:29:06;33.90;;;9.98;;
68212;SDS011;55035;47.792;8.724;2023-02-15T08:31:35;38.70;;;9.60;;
68212;SDS011;55035;47.792;8.724;2023-02-15T08:34:02;33.85;;;10.65;;
68212;SDS011;55035;47.792;8.724;2023-02-15T08:36:30;39.85;;;11.43;;
68212;SDS011;55035;47.792;8.724;2023-02-15T08:38:57;26.25;;;9.48;;
68212;SDS011;55035;47.792;8.724;2023-02-15T08:41:25;38.28;;;9.80;;
68212;SDS011;55035;47.792;8.724;2023-02-15T08:43:53;37.23;;;9.87;;
68212;SDS011;55035;47.792;8.724;2023-02-15T08:46:22;35.83;;;9.43;;
68212;SDS011;55035;47.792;8.724;2023-02-15T08:48:50;31.08;;;10.18;;
68212;SDS011;55035;47.792;8.724;2023-02-15T08:51:18;30.23;;;9.88;;
68212;SDS011;55035;47.792;8.724;2023-02-15T08:53:46;27.90;;;9.85;;
68212;SDS011;55035;47.792;8.724;2023-02-15T08:56:14;45.93;;;10.23;;
68212;SDS011;55035;47.792;8.724;2023-02-15T08:58:41;32.58;;;10.07;;
68212;SDS011;55035;47.792;8.724;2023-02-15T09:01:09;35.72;;;9.88;;
68212;SDS011;55035;47.792;8.724;2023-02-15T09:03:37;30.30;;;10.80;;
68212;SDS011;55035;47.792;8.724;2023-02-15T09:06:04;34.10;;;10.57;;
68212;SDS011;55035;47.792;8.724;2023-02-15T09:08:31;32.23;;;11.30;;
68212;SDS011;55035;47.792;8.724;2023-02-15T09:11:05;37.67;;;11.65;;
68212;SDS011;55035;47.792;8.724;2023-02-15T09:13:33;31.30;;;10.82;;
68212;SDS011;55035;47.792;8.724;2023-02-15T09:16:00;29.13;;;10.43;;
68212;SDS011;55035;47.792;8.724;2023-02-15T09:18:29;37.20;;;9.98;;
68212;SDS011;55035;47.792;8.724;2023-02-15T09:20:57;34.67;;;10.10;;
68212;SDS011;55035;47.792;8.724;2023-02-15T09:23:29;35.42;;;11.10;;
68212;SDS011;55035;47.792;8.724;2023-02-15T09:25:57;44.83;;;11.25;;
68212;SDS011;55035;47.792;8.724;2023-02-15T09:28:24;34.28;;;10.80;;
68212;SDS011;55035;47.792;8.724;2023-02-15T09:30:50;30.52;;;10.90;;
68212;SDS011;55035;47.792;8.724;2023-02-15T09:33:18;34.10;;;10.20;;
68212;SDS011;55035;47.792;8.724;2023-02-15T09:35:45;30.33;;;10.65;;
68212;SDS011;55035;47.792;8.724;2023-02-15T09:38:14;37.63;;;11.20;;
68212;SDS011;55035;47.792;8.724;2023-02-15T09:40:42;29.17;;;10.52;;
68212;SDS011;55035;47.792;8.724;2023-02-15T09:43:16;39.08;;;11.15;;
68212;SDS011;55035;47.792;8.724;2023-02-15T09:45:53;27.67;;;9.23;;
68212;SDS011;55035;47.792;8.724;2023-02-15T09:48:30;38.75;;;9.65;;
68212;SDS011;55035;47.792;8.724;2023-02-15T09:51:06;34.30;;;10.27;;
68212;SDS011;55035;47.792;8.724;2023-02-15T09:53:45;26.25;;;9.30;;
68212;SDS011;55035;47.792;8.724;2023-02-15T09:56:16;26.02;;;9.27;;
68212;SDS011;55035;47.792;8.724;2023-02-15T09:58:46;28.03;;;9.60;;
68212;SDS011;55035;47.792;8.724;2023-02-15T10:01:17;31.92;;;9.57;;
68212;SDS011;55035;47.792;8.724;2023-02-15T10:03:52;29.63;;;9.82;;
68212;SDS011;55035;47.792;8.724;2023-02-15T10:06:28;25.20;;;9.68;;
68212;SDS011;55035;47.792;8.724;2023-02-15T10:09:09;51.47;;;11.07;;
68212;SDS011;55035;47.792;8.724;2023-02-15T10:11:43;42.73;;;10.10;;
68212;SDS011;55035;47.792;8.724;2023-02-15T10:14:25;29.65;;;9.55;;
68212;SDS011;55035;47.792;8.724;2023-02-15T10:17:06;32.45;;;9.40;;
68212;SDS011;55035;47.792;8.724;2023-02-15T10:19:39;25.35;;;8.52;;
68212;SDS011;55035;47.792;8.724;2023-02-15T10:22:13;33.30;;;9.77;;
68212;SDS011;55035;47.792;8.724;2023-02-15T10:24:48;27.73;;;9.70;;
68212;SDS011;55035;47.792;8.724;2023-02-15T10:27:19;40.97;;;16.40;;
68212;SDS011;55035;47.792;8.724;2023-02-15T10:29:48;38.42;;;13.30;;
68212;SDS011;55035;47.792;8.724;2023-02-15T10:32:21;34.92;;;10.98;;
68212;SDS011;55035;47.792;8.724;2023-02-15T10:34:50;33.33;;;10.82;;
68212;SDS011;55035;47.792;8.724;2023-02-15T10:40:08;28.77;;;9.32;;
68212;SDS011;55035;47.792;8.724;2023-02-15T10:42:40;70.47;;;11.02;;
68212;SDS011;55035;47.792;8.724;2023-02-15T10:45:12;42.20;;;9.57;;
68212;SDS011;55035;47.792;8.724;2023-02-15T10:50:34;49.87;;;10.47;;
68212;SDS011;55035;47.792;8.724;2023-02-15T10:53:09;33.30;;;10.20;;
68212;SDS011;55035;47.792;8.724;2023-02-15T10:55:43;38.40;;;10.50;;
68212;SDS011;55035;47.792;8.724;2023-02-15T10:58:18;35.03;;;10.48;;
68212;SDS011;55035;47.792;8.724;2023-02-15T11:00:52;29.63;;;10.90;;
68212;SDS011;55035;47.792;8.724;2023-02-15T11:03:32;41.07;;;10.50;;
68212;SDS011;55035;47.792;8.724;2023-02-15T11:06:02;31.88;;;10.38;;
68212;SDS011;55035;47.792;8.724;2023-02-15T11:08:31;48.92;;;11.35;;
68212;SDS011;55035;47.792;8.724;2023-02-15T11:11:02;49.40;;;10.93;;
68212;SDS011;55035;47.792;8.724;2023-02-15T11:13:34;49.28;;;10.25;;
68212;SDS011;55035;47.792;8.724;2023-02-15T11:16:02;59.13;;;11.13;;
68212;SDS011;55035;47.792;8.724;2023-02-15T11:18:31;36.58;;;9.10;;
68212;SDS011;55035;47.792;8.724;2023-02-15T11:21:00;45.22;;;11.25;;
68212;SDS011;55035;47.792;8.724;2023-02-15T11:23:27;41.00;;;10.75;;
68212;SDS011;55035;47.792;8.724;2023-02-15T11:25:56;38.70;;;11.27;;
68212;SDS011;55035;47.792;8.724;2023-02-15T11:28:27;33.03;;;10.93;;
68212;SDS011;55035;47.792;8.724;2023-02-15T11:30:55;32.40;;;10.60;;
68212;SDS011;55035;47.792;8.724;2023-02-15T11:33:24;33.35;;;11.32;;
68212;SDS011;55035;47.792;8.724;2023-02-15T11:35:53;31.52;;;10.73;;
68212;SDS011;55035;47.792;8.724;2023-02-15T11:38:22;33.83;;;12.18;;
68212;SDS011;55035;47.792;8.724;2023-02-15T11:40:51;30.90;;;11.47;;
68212;SDS011;55035;47.792;8.724;2023-02-15T11:43:20;40.83;;;18.95;;
68212;SDS011;55035;47.792;8.724;2023-02-15T11:45:51;26.50;;;11.38;;
68212;SDS011;55035;47.792;8.724;2023-02-15T11:48:21;35.75;;;10.90;;
68212;SDS011;55035;47.792;8.724;2023-02-15T11:50:48;34.30;;;11.23;;
68212;SDS011;55035;47.792;8.724;2023-02-15T11:53:15;35.97;;;10.90;;
68212;SDS011;55035;47.792;8.724;2023-02-15T11:55:43;28.27;;;11.52;;
68212;SDS011;55035;47.792;8.724;2023-02-15T11:58:13;33.33;;;11.70;;
68212;SDS011;55035;47.792;8.724;2023-02-15T12:00:43;36.13;;;12.07;;
68212;SDS011;55035;47.792;8.724;2023-02-15T12:03:14;43.30;;;12.23;;
68212;SDS011;55035;47.792;8.724;2023-02-15T12:05:43;35.07;;;11.53;;
68212;SDS011;55035;47.792;8.724;2023-02-15T12:08:15;32.80;;;12.57;;
68212;SDS011;55035;47.792;8.724;2023-02-15T12:10:45;27.63;;;11.55;;
68212;SDS011;55035;47.792;8.724;2023-02-15T12:13:18;45.45;;;11.60;;
68212;SDS011;55035;47.792;8.724;2023-02-15T12:15:46;28.83;;;12.10;;
68212;SDS011;55035;47.792;8.724;2023-02-15T12:18:35;29.70;;;11.30;;
68212;SDS011;55035;47.792;8.724;2023-02-15T12:21:03;29.67;;;11.55;;
68212;SDS011;55035;47.792;8.724;2023-02-15T12:23:33;35.42;;;12.20;;
68212;SDS011;55035;47.792;8.724;2023-02-15T12:26:01;41.30;;;11.75;;
68212;SDS011;55035;47.792;8.724;2023-02-15T12:28:31;37.83;;;12.05;;
68212;SDS011;55035;47.792;8.724;2023-02-15T12:30:59;30.27;;;11.33;;
68212;SDS011;55035;47.792;8.724;2023-02-15T12:33:27;36.97;;;12.90;;
68212;SDS011;55035;47.792;8.724;2023-02-15T12:35:59;38.60;;;13.32;;
68212;SDS011;55035;47.792;8.724;2023-02-15T12:38:27;40.65;;;13.38;;
68212;SDS011;55035;47.792;8.724;2023-02-15T12:40:56;43.70;;;12.85;;
68212;SDS011;55035;47.792;8.724;2023-02-15T12:43:24;33.77;;;12.73;;
68212;SDS011;55035;47.792;8.724;2023-02-15T12:45:51;36.75;;;13.75;;
68212;SDS011;55035;47.792;8.724;2023-02-15T12:48:19;31.33;;;13.18;;
68212;SDS011;55035;47.792;8.724;2023-02-15T12:50:48;31.85;;;11.98;;
68212;SDS011;55035;47.792;8.724;2023-02-15T12:53:17;31.70;;;13.48;;
68212;SDS011;55035;47.792;8.724;2023-02-15T12:55:54;32.20;;;12.17;;
68212;SDS011;55035;47.792;8.724;2023-02-15T12:58:22;34.13;;;12.60;;
68212;SDS011;55035;47.792;8.724;2023-02-15T13:01:04;43.33;;;13.32;;
68212;SDS011;55035;47.792;8.724;2023-02-15T13:03:37;30.85;;;12.63;;
68212;SDS011;55035;47.792;8.724;2023-02-15T13:06:04;33.65;;;11.95;;
68212;SDS011;55035;47.792;8.724;2023-02-15T13:08:34;33.17;;;12.70;;
68212;SDS011;55035;47.792;8.724;2023-02-15T13:11:03;32.53;;;14.05;;
68212;SDS011;55035;47.792;8.724;2023-02-15T13:13:32;32.63;;;13.82;;
68212;SDS011;55035;47.792;8.724;2023-02-15T13:16:01;30.92;;;13.13;;
68212;SDS011;55035;47.792;8.724;2023-02-15T13:18:30;32.10;;;13.07;;
68212;SDS011;55035;47.792;8.724;2023-02-15T13:20:58;32.07;;;12.87;;
68212;SDS011;55035;47.792;8.724;2023-02-15T13:23:29;31.83;;;13.15;;
68212;SDS011;55035;47.792;8.724;2023-02-15T13:25:58;35.42;;;13.63;;
68212;SDS011;55035;47.792;8.724;2023-02-15T13:28:38;32.80;;;13.52;;
68212;SDS011;55035;47.792;8.724;2023-02-15T13:31:08;32.65;;;13.73;;
68212;SDS011;55035;47.792;8.724;2023-02-15T13:33:38;31.97;;;13.63;;
68212;SDS011;55035;47.792;8.724;2023-02-15T13:36:09;33.35;;;13.80;;
68212;SDS011;55035;47.792;8.724;2023-02-15T13:38:44;36.03;;;13.80;;
68212;SDS011;55035;47.792;8.724;2023-02-15T13:41:15;33.60;;;14.40;;
68212;SDS011;55035;47.792;8.724;2023-02-15T13:43:46;34.13;;;13.93;;
68212;SDS011;55035;47.792;8.724;2023-02-15T13:46:19;34.77;;;14.00;;
68212;SDS011;55035;47.792;8.724;2023-02-15T13:48:52;37.30;;;14.70;;
68212;SDS011;55035;47.792;8.724;2023-02-15T13:51:28;36.78;;;15.35;;
68212;SDS011;55035;47.792;8.724;2023-02-15T13:54:02;32.08;;;14.23;;
68212;SDS011;55035;47.792;8.724;2023-02-15T13:56:35;33.53;;;13.98;;
68212;SDS011;55035;47.792;8.724;2023-02-15T13:59:17;33.40;;;13.97;;
68212;SDS011;55035;47.792;8.724;2023-02-15T14:01:50;34.63;;;15.05;;
68212;SDS011;55035;47.792;8.724;2023-02-15T14:04:30;35.97;;;15.00;;
68212;SDS011;55035;47.792;8.724;2023-02-15T14:07:11;35.47;;;14.98;;
68212;SDS011;55035;47.792;8.724;2023-02-15T14:09:43;37.47;;;15.43;;
68212;SDS011;55035;47.792;8.724;2023-02-15T14:15:12;38.03;;;14.35;;
68212;SDS011;55035;47.792;8.724;2023-02-15T14:17:43;34.47;;;15.40;;
68212;SDS011;55035;47.792;8.724;2023-02-15T14:20:17;37.65;;;15.95;;
68212;SDS011;55035;47.792;8.724;2023-02-15T14:22:46;35.88;;;15.88;;
68212;SDS011;55035;47.792;8.724;2023-02-15T14:25:18;32.83;;;15.07;;
68212;SDS011;55035;47.792;8.724;2023-02-15T14:27:51;32.22;;;14.43;;
68212;SDS011;55035;47.792;8.724;2023-02-15T14:30:22;34.28;;;15.95;;
68212;SDS011;55035;47.792;8.724;2023-02-15T14:32:52;35.08;;;14.82;;
68212;SDS011;55035;47.792;8.724;2023-02-15T14:35:21;31.95;;;14.20;;
68212;SDS011;55035;47.792;8.724;2023-02-15T14:37:52;36.47;;;15.37;;
68212;SDS011;55035;47.792;8.724;2023-02-15T14:40:23;33.00;;;14.52;;
68212;SDS011;55035;47.792;8.724;2023-02-15T14:43:14;35.08;;;14.57;;
68212;SDS011;55035;47.792;8.724;2023-02-15T14:45:45;33.45;;;15.18;;
68212;SDS011;55035;47.792;8.724;2023-02-15T14:48:15;34.15;;;14.98;;
68212;SDS011;55035;47.792;8.724;2023-02-15T14:50:45;32.73;;;14.97;;
68212;SDS011;55035;47.792;8.724;2023-02-15T14:53:17;34.47;;;14.70;;